KGIF

Winter Haven's Gilbert Airport

Winter Haven, Florida, USA
METAR KGIF 181953Z AUTO 36003KT 10SM FEW046 28/17 A3020 RMK AO2 SLP223 T02780172
Observed Flight Rules
Dec-18 @ 19:53 UTC (19 minutes ago) Visual Flight Rules
Wind Visibility Clouds
360° at 3 knots 10 miles
  • Few at 4,600' AGL
Temperatures Readings
Current 28°C / 82°F
Dewpoint 17°C / 63°F
Humidity 51%
Altimeter 30.2" Hg
Pressure 1022.3 hPa
Elevation 43
METAR KGIF 181953Z AUTO 36003KT 10SM FEW046 28/17 A3020 RMK AO2 SLP223 T02780172
Observed Flight Rules
Dec-18 @ 19:53 UTC
(19 minutes ago)
VFR
Wind Visibility
360° at 3 knots 10 miles
Clouds
  • Few at 4,600' AGL
Temperature Dewpoint
28°C / 82°F 17°C / 63°F
Humidity Altimeter Pressure
51% 30.2" Hg 1022.3 hPa